PWSweather.com
Personal Weather Stations
Station Observations
728536
Kristiansand, FlekkeroyNO 4625

KristiansandFlekkeroyNO 4625

Lat: 58.0860587, Lon: 8.0151742

Elevation: 36

Station Type: Davis Vantage Pro2

http://www.paulen.no

Latest ConditionsUpdated 1:00:01 PM GMT+01:01 Sunday, Jan 20, 2019
Currently Today's Max Today's Min Today's Average
Temperature 32.1°F0.1°C 33.0°F0.6°C 29.0°F-1.7°C 30.4°F-0.9°C
Dew Point 27.5°F-2.5°C 30.9°F-0.6°C 25.8°F-3.4°C 27.8°F-2.3°C
Winds 3.5 mph N5.6 kmh N 9.2 mph -14.8 kmh - - 4.6 mph 7.4 kmh
Wind Gusts 4.6 mph7.4 kmh 11.5 mph18.5 kmh - -
Humidity 83% 94% 83% 90%
Pressure 30.07 in1018.3 mb 30.07 in1018.3 mb 29.98 in1015.2 mb -
Hour Temp Dew Point Humidity Winds Wind Gusts Pressure Precip Precip Rate Daily Precip Total
01:00 PM 32.1°F0.1°C 27.5°F-2.5°C 83% 3.5 mph N5.6 kmh N 4.6 mph7.4 kmh 30.07 in1018.3 mb - 0.00 in0.0 mm 0.00 in0.0 mm
12:50 PM 31.8°F-0.1°C 27.5°F-2.5°C 84% 3.5 mph N5.6 kmh N 3.5 mph5.6 kmh 30.07 in1018.3 mb - 0.00 in0.0 mm 0.00 in0.0 mm
12:40 PM 31.3°F-0.4°C 27.0°F-2.8°C 84% 4.6 mph NNW7.4 kmh NNW 5.8 mph9.3 kmh 30.07 in1018.3 mb - 0.00 in0.0 mm 0.00 in0.0 mm
12:30 PM 31.8°F-0.1°C 27.5°F-2.5°C 84% 6.9 mph NNW11.1 kmh NNW 8.1 mph13.0 kmh 30.07 in1018.3 mb - 0.00 in0.0 mm 0.00 in0.0 mm
12:20 PM 32.0°F0.0°C 27.7°F-2.4°C 84% 6.9 mph N11.1 kmh N 6.9 mph11.1 kmh 30.06 in1017.9 mb - 0.00 in0.0 mm 0.00 in0.0 mm
12:10 PM 31.5°F-0.3°C 27.5°F-2.5°C 85% 9.2 mph N14.8 kmh N 11.5 mph18.5 kmh 30.06 in1017.9 mb - 0.00 in0.0 mm 0.00 in0.0 mm
12:00 PM 30.6°F-0.8°C 26.9°F-2.8°C 86% 5.8 mph N9.3 kmh N 10.4 mph16.7 kmh 30.07 in1018.3 mb - 0.00 in0.0 mm 0.00 in0.0 mm
11:50 AM 30.6°F-0.8°C 26.9°F-2.8°C 86% 5.8 mph N9.3 kmh N 6.9 mph11.1 kmh 30.07 in1018.3 mb - 0.00 in0.0 mm 0.00 in0.0 mm
11:40 AM 30.6°F-0.8°C 26.9°F-2.8°C 86% 5.8 mph N9.3 kmh N 6.9 mph11.1 kmh 30.07 in1018.3 mb - 0.00 in0.0 mm 0.00 in0.0 mm
11:30 AM 30.8°F-0.7°C 26.8°F-2.9°C 85% 5.8 mph N9.3 kmh N 8.1 mph13.0 kmh 30.07 in1018.3 mb - 0.00 in0.0 mm 0.00 in0.0 mm
11:20 AM 30.4°F-0.9°C 26.4°F-3.1°C 85% 3.5 mph N5.6 kmh N 4.6 mph7.4 kmh 30.07 in1018.3 mb - 0.00 in0.0 mm 0.00 in0.0 mm
11:10 AM 30.2°F-1.0°C 26.2°F-3.2°C 85% 3.5 mph N5.6 kmh N 4.6 mph7.4 kmh 30.07 in1018.3 mb - 0.00 in0.0 mm 0.00 in0.0 mm
11:00 AM 29.9°F-1.2°C 25.9°F-3.4°C 85% 4.6 mph N7.4 kmh N 5.8 mph9.3 kmh 30.07 in1018.3 mb - 0.00 in0.0 mm 0.00 in0.0 mm
10:50 AM 29.6°F-1.3°C 25.9°F-3.4°C 86% 5.8 mph NNW9.3 kmh NNW 6.9 mph11.1 kmh 30.07 in1018.3 mb - 0.00 in0.0 mm 0.00 in0.0 mm
10:40 AM 29.6°F-1.3°C 25.9°F-3.4°C 86% 6.9 mph NNW11.1 kmh NNW 9.2 mph14.8 kmh 30.07 in1018.3 mb - 0.00 in0.0 mm 0.00 in0.0 mm
10:30 AM 29.5°F-1.4°C 26.1°F-3.3°C 87% 4.6 mph N7.4 kmh N 5.8 mph9.3 kmh 30.07 in1018.3 mb - 0.00 in0.0 mm 0.00 in0.0 mm
10:20 AM 29.4°F-1.4°C 26.0°F-3.3°C 87% 4.6 mph N7.4 kmh N 5.8 mph9.3 kmh 30.06 in1017.9 mb - 0.00 in0.0 mm 0.00 in0.0 mm
10:10 AM 29.3°F-1.5°C 26.2°F-3.2°C 88% 3.5 mph N5.6 kmh N 3.5 mph5.6 kmh 30.06 in1017.9 mb - 0.00 in0.0 mm 0.00 in0.0 mm
10:00 AM 29.0°F-1.7°C 25.9°F-3.4°C 88% 4.6 mph N7.4 kmh N 5.8 mph9.3 kmh 30.06 in1017.9 mb - 0.00 in0.0 mm 0.00 in0.0 mm
09:50 AM 29.2°F-1.6°C 26.1°F-3.3°C 88% 4.6 mph N7.4 kmh N 6.9 mph11.1 kmh 30.06 in1017.9 mb - 0.00 in0.0 mm 0.00 in0.0 mm
09:40 AM 29.2°F-1.6°C 25.8°F-3.4°C 87% 4.6 mph N7.4 kmh N 8.1 mph13.0 kmh 30.05 in1017.6 mb - 0.00 in0.0 mm 0.00 in0.0 mm
09:30 AM 29.4°F-1.4°C 26.0°F-3.3°C 87% 5.8 mph N9.3 kmh N 6.9 mph11.1 kmh 30.05 in1017.6 mb - 0.00 in0.0 mm 0.00 in0.0 mm
09:20 AM 29.6°F-1.3°C 26.4°F-3.1°C 88% 6.9 mph N11.1 kmh N 8.1 mph13.0 kmh 30.05 in1017.6 mb - 0.00 in0.0 mm 0.00 in0.0 mm
09:10 AM 29.5°F-1.4°C 26.4°F-3.1°C 88% 6.9 mph N11.1 kmh N 9.2 mph14.8 kmh 30.04 in1017.3 mb - 0.00 in0.0 mm 0.00 in0.0 mm
09:00 AM 29.6°F-1.3°C 26.8°F-2.9°C 89% 6.9 mph N11.1 kmh N 8.1 mph13.0 kmh 30.04 in1017.3 mb - 0.00 in0.0 mm 0.00 in0.0 mm
08:50 AM 29.9°F-1.2°C 26.8°F-2.9°C 88% 5.8 mph N9.3 kmh N 5.8 mph9.3 kmh 30.04 in1017.3 mb - 0.00 in0.0 mm 0.00 in0.0 mm
08:40 AM 29.7°F-1.3°C 26.6°F-3.0°C 88% 6.9 mph N11.1 kmh N 10.4 mph16.7 kmh 30.03 in1016.9 mb - 0.00 in0.0 mm 0.00 in0.0 mm
08:30 AM 29.5°F-1.4°C 26.4°F-3.1°C 88% 9.2 mph N14.8 kmh N 11.5 mph18.5 kmh 30.03 in1016.9 mb - 0.00 in0.0 mm 0.00 in0.0 mm
08:20 AM 30.0°F-1.1°C 26.9°F-2.8°C 88% 4.6 mph N7.4 kmh N 6.9 mph11.1 kmh 30.02 in1016.6 mb - 0.00 in0.0 mm 0.00 in0.0 mm
08:10 AM 29.8°F-1.2°C 26.7°F-2.9°C 88% 5.8 mph N9.3 kmh N 8.1 mph13.0 kmh 30.02 in1016.6 mb - 0.00 in0.0 mm 0.00 in0.0 mm
08:00 AM 29.8°F-1.2°C 26.7°F-2.9°C 88% 6.9 mph N11.1 kmh N 10.4 mph16.7 kmh 30.02 in1016.6 mb - 0.00 in0.0 mm 0.00 in0.0 mm
07:50 AM 29.8°F-1.2°C 26.7°F-2.9°C 88% 5.8 mph N9.3 kmh N 6.9 mph11.1 kmh 30.02 in1016.6 mb - 0.00 in0.0 mm 0.00 in0.0 mm
07:40 AM 30.2°F-1.0°C 27.1°F-2.7°C 88% 5.8 mph N9.3 kmh N 6.9 mph11.1 kmh 30.02 in1016.6 mb - 0.00 in0.0 mm 0.00 in0.0 mm
07:30 AM 30.2°F-1.0°C 27.3°F-2.6°C 89% 5.8 mph N9.3 kmh N 6.9 mph11.1 kmh 30.01 in1016.3 mb - 0.00 in0.0 mm 0.00 in0.0 mm
07:20 AM 30.0°F-1.1°C 27.4°F-2.6°C 90% 5.8 mph NNW9.3 kmh NNW 6.9 mph11.1 kmh 30.01 in1016.3 mb - 0.00 in0.0 mm 0.00 in0.0 mm
07:10 AM 29.7°F-1.3°C 27.1°F-2.7°C 90% 3.5 mph N5.6 kmh N 4.6 mph7.4 kmh 30.01 in1016.3 mb - 0.00 in0.0 mm 0.00 in0.0 mm
07:00 AM 29.7°F-1.3°C 27.1°F-2.7°C 90% 8.1 mph NNW13.0 kmh NNW 9.2 mph14.8 kmh 30.01 in1016.3 mb - 0.00 in0.0 mm 0.00 in0.0 mm
06:50 AM 29.9°F-1.2°C 27.4°F-2.6°C 90% 8.1 mph NNW13.0 kmh NNW 9.2 mph14.8 kmh 30.01 in1016.3 mb - 0.00 in0.0 mm 0.00 in0.0 mm
06:40 AM 29.8°F-1.2°C 27.5°F-2.5°C 91% 5.8 mph N9.3 kmh N 9.2 mph14.8 kmh 30.00 in1015.9 mb - 0.00 in0.0 mm 0.00 in0.0 mm
06:30 AM 29.3°F-1.5°C 27.2°F-2.7°C 92% 4.6 mph N7.4 kmh N 6.9 mph11.1 kmh 30.00 in1015.9 mb - 0.00 in0.0 mm 0.00 in0.0 mm
06:20 AM 29.6°F-1.3°C 27.6°F-2.4°C 92% 6.9 mph N11.1 kmh N 10.4 mph16.7 kmh 30.00 in1015.9 mb - 0.00 in0.0 mm 0.00 in0.0 mm
06:10 AM 29.6°F-1.3°C 27.8°F-2.3°C 93% 4.6 mph N7.4 kmh N 6.9 mph11.1 kmh 30.00 in1015.9 mb - 0.00 in0.0 mm 0.00 in0.0 mm
06:00 AM 29.4°F-1.4°C 27.6°F-2.4°C 93% 3.5 mph NNE5.6 kmh NNE 5.8 mph9.3 kmh 30.00 in1015.9 mb - 0.00 in0.0 mm 0.00 in0.0 mm
05:50 AM 29.5°F-1.4°C 27.4°F-2.6°C 92% 2.3 mph N3.7 kmh N 3.5 mph5.6 kmh 30.00 in1015.9 mb - 0.00 in0.0 mm 0.00 in0.0 mm
05:40 AM 29.7°F-1.3°C 27.9°F-2.3°C 93% 4.6 mph N7.4 kmh N 4.6 mph7.4 kmh 30.00 in1015.9 mb - 0.00 in0.0 mm 0.00 in0.0 mm
05:30 AM 29.7°F-1.3°C 27.9°F-2.3°C 93% 3.5 mph N5.6 kmh N 5.8 mph9.3 kmh 30.00 in1015.9 mb - 0.00 in0.0 mm 0.00 in0.0 mm
05:20 AM 29.7°F-1.3°C 27.9°F-2.3°C 93% 3.5 mph NNW5.6 kmh NNW 4.6 mph7.4 kmh 30.00 in1015.9 mb - 0.00 in0.0 mm 0.00 in0.0 mm
05:10 AM 29.5°F-1.4°C 28.0°F-2.2°C 94% 3.5 mph NNW5.6 kmh NNW 3.5 mph5.6 kmh 30.00 in1015.9 mb - 0.00 in0.0 mm 0.00 in0.0 mm
05:00 AM 29.6°F-1.3°C 28.1°F-2.2°C 94% 4.6 mph NW7.4 kmh NW 6.9 mph11.1 kmh 30.00 in1015.9 mb - 0.00 in0.0 mm 0.00 in0.0 mm
04:50 AM 29.3°F-1.5°C 27.8°F-2.3°C 94% 5.8 mph NNW9.3 kmh NNW 5.8 mph9.3 kmh 30.00 in1015.9 mb - 0.00 in0.0 mm 0.00 in0.0 mm
04:40 AM 29.1°F-1.6°C 27.3°F-2.6°C 93% 3.5 mph NNW5.6 kmh NNW 3.5 mph5.6 kmh 30.00 in1015.9 mb - 0.00 in0.0 mm 0.00 in0.0 mm
04:30 AM 29.3°F-1.5°C 27.8°F-2.3°C 94% 4.6 mph NNW7.4 kmh NNW 4.6 mph7.4 kmh 30.00 in1015.9 mb - 0.00 in0.0 mm 0.00 in0.0 mm
04:20 AM 29.6°F-1.3°C 28.1°F-2.2°C 94% 4.6 mph NNW7.4 kmh NNW 5.8 mph9.3 kmh 30.00 in1015.9 mb - 0.00 in0.0 mm 0.00 in0.0 mm
04:10 AM 30.0°F-1.1°C 28.5°F-1.9°C 94% 4.6 mph NNW7.4 kmh NNW 5.8 mph9.3 kmh 30.00 in1015.9 mb - 0.00 in0.0 mm 0.00 in0.0 mm
04:00 AM 30.2°F-1.0°C 28.7°F-1.8°C 94% 4.6 mph N7.4 kmh N 4.6 mph7.4 kmh 30.00 in1015.9 mb - 0.00 in0.0 mm 0.00 in0.0 mm
03:50 AM 30.2°F-1.0°C 28.7°F-1.8°C 94% 4.6 mph N7.4 kmh N 5.8 mph9.3 kmh 30.00 in1015.9 mb - 0.00 in0.0 mm 0.00 in0.0 mm
03:40 AM 30.0°F-1.1°C 28.5°F-1.9°C 94% 3.5 mph N5.6 kmh N 5.8 mph9.3 kmh 30.00 in1015.9 mb - 0.00 in0.0 mm 0.00 in0.0 mm
03:30 AM 29.9°F-1.2°C 28.1°F-2.2°C 93% 3.5 mph N5.6 kmh N 3.5 mph5.6 kmh 30.00 in1015.9 mb - 0.00 in0.0 mm 0.00 in0.0 mm
03:20 AM 30.3°F-0.9°C 28.5°F-1.9°C 93% 3.5 mph NNW5.6 kmh NNW 3.5 mph5.6 kmh 30.00 in1015.9 mb - 0.00 in0.0 mm 0.00 in0.0 mm
03:10 AM 30.3°F-0.9°C 28.5°F-1.9°C 93% 3.5 mph NNW5.6 kmh NNW 4.6 mph7.4 kmh 30.00 in1015.9 mb - 0.00 in0.0 mm 0.00 in0.0 mm
03:00 AM 30.7°F-0.7°C 28.9°F-1.7°C 93% 1.2 mph NW1.9 kmh NW 2.3 mph3.7 kmh 29.99 in1015.6 mb - 0.00 in0.0 mm 0.00 in0.0 mm
02:50 AM 30.7°F-0.7°C 28.9°F-1.7°C 93% Calm Calm 2.3 mph3.7 kmh 29.99 in1015.6 mb - 0.00 in0.0 mm 0.00 in0.0 mm
02:40 AM 30.8°F-0.7°C 28.7°F-1.8°C 92% Calm Calm -- 29.99 in1015.6 mb - 0.00 in0.0 mm 0.00 in0.0 mm
02:30 AM 31.1°F-0.5°C 29.0°F-1.7°C 92% 3.5 mph NW5.6 kmh NW 3.5 mph5.6 kmh 29.99 in1015.6 mb - 0.00 in0.0 mm 0.00 in0.0 mm
02:20 AM 31.4°F-0.3°C 29.3°F-1.5°C 92% 3.5 mph NW5.6 kmh NW 3.5 mph5.6 kmh 29.99 in1015.6 mb - 0.00 in0.0 mm 0.00 in0.0 mm
02:10 AM 31.4°F-0.3°C 29.4°F-1.4°C 92% 2.3 mph NW3.7 kmh NW 3.5 mph5.6 kmh 29.98 in1015.2 mb - 0.00 in0.0 mm 0.00 in0.0 mm
02:00 AM 32.3°F0.2°C 29.9°F-1.2°C 91% 3.5 mph NW5.6 kmh NW 4.6 mph7.4 kmh 29.98 in1015.2 mb - 0.00 in0.0 mm 0.00 in0.0 mm
01:50 AM 33.0°F0.6°C 30.9°F-0.6°C 92% 2.3 mph NW3.7 kmh NW 4.6 mph7.4 kmh 29.98 in1015.2 mb - 0.00 in0.0 mm 0.00 in0.0 mm
01:40 AM 32.7°F0.4°C 30.9°F-0.6°C 93% 3.5 mph NW5.6 kmh NW 3.5 mph5.6 kmh 29.98 in1015.2 mb - 0.00 in0.0 mm 0.00 in0.0 mm
01:30 AM 32.3°F0.2°C 30.5°F-0.8°C 93% 2.3 mph NW3.7 kmh NW 3.5 mph5.6 kmh 29.98 in1015.2 mb - 0.00 in0.0 mm 0.00 in0.0 mm
01:20 AM 32.1°F0.1°C 30.3°F-0.9°C 93% 2.3 mph NW3.7 kmh NW 3.5 mph5.6 kmh 29.99 in1015.6 mb - 0.00 in0.0 mm 0.00 in0.0 mm
01:10 AM 31.8°F-0.1°C 30.0°F-1.1°C 93% 2.3 mph NW3.7 kmh NW 3.5 mph5.6 kmh 29.99 in1015.6 mb - 0.00 in0.0 mm 0.00 in0.0 mm
01:00 AM 31.8°F-0.1°C 30.0°F-1.1°C 93% 3.5 mph NW5.6 kmh NW 4.6 mph7.4 kmh 29.99 in1015.6 mb - 0.00 in0.0 mm 0.00 in0.0 mm
12:50 AM 32.0°F0.0°C 30.2°F-1.0°C 93% 4.6 mph NW7.4 kmh NW 5.8 mph9.3 kmh 29.99 in1015.6 mb - 0.00 in0.0 mm 0.00 in0.0 mm
12:40 AM 31.9°F-0.1°C 30.1°F-1.1°C 93% 3.5 mph NW5.6 kmh NW 4.6 mph7.4 kmh 29.99 in1015.6 mb - 0.00 in0.0 mm 0.00 in0.0 mm
12:30 AM 31.7°F-0.2°C 29.9°F-1.2°C 93% 1.2 mph NW1.9 kmh NW 2.3 mph3.7 kmh 29.99 in1015.6 mb - 0.00 in0.0 mm 0.00 in0.0 mm
12:20 AM 31.6°F-0.2°C 29.8°F-1.2°C 93% 3.5 mph NW5.6 kmh NW 3.5 mph5.6 kmh 29.99 in1015.6 mb - 0.00 in0.0 mm 0.00 in0.0 mm
12:10 AM 31.5°F-0.3°C 29.7°F-1.3°C 93% 3.5 mph NW5.6 kmh NW 3.5 mph5.6 kmh 29.99 in1015.6 mb - 0.00 in0.0 mm 0.00 in0.0 mm
12:00 AM 31.7°F-0.2°C 29.9°F-1.2°C 93% 2.3 mph NW3.7 kmh NW 3.5 mph5.6 kmh 29.98 in1015.2 mb - 0.00 in0.0 mm 0.00 in0.0 mm